sensor_id;sensor_type;location;lat;lon;timestamp;pressure;altitude;pressure_sealevel;temperature;humidity
76590;BME280;65471;55.908;37.880;2023-04-06T00:00:53;100529.69;;;3.58;81.13
76590;BME280;65471;55.908;37.880;2023-04-06T00:03:20;100522.31;;;3.52;80.65
76590;BME280;65471;55.908;37.880;2023-04-06T00:05:48;100532.03;;;3.53;80.90
76590;BME280;65471;55.908;37.880;2023-04-06T00:08:15;100535.03;;;3.50;80.99
76590;BME280;65471;55.908;37.880;2023-04-06T00:10:42;100529.34;;;3.44;80.67
76590;BME280;65471;55.908;37.880;2023-04-06T00:13:09;100533.16;;;3.42;81.11
76590;BME280;65471;55.908;37.880;2023-04-06T00:15:36;100529.19;;;3.38;81.41
76590;BME280;65471;55.908;37.880;2023-04-06T00:18:03;100529.50;;;3.35;80.92
76590;BME280;65471;55.908;37.880;2023-04-06T00:20:30;100532.66;;;3.30;81.10
76590;BME280;65471;55.908;37.880;2023-04-06T00:22:57;100528.66;;;3.26;81.63
76590;BME280;65471;55.908;37.880;2023-04-06T00:25:25;100536.84;;;3.24;81.52
76590;BME280;65471;55.908;37.880;2023-04-06T00:27:52;100533.69;;;3.21;81.96
76590;BME280;65471;55.908;37.880;2023-04-06T00:30:19;100528.50;;;3.19;81.16
76590;BME280;65471;55.908;37.880;2023-04-06T00:32:46;100527.16;;;3.15;82.09
76590;BME280;65471;55.908;37.880;2023-04-06T00:35:13;100531.97;;;3.11;81.46
76590;BME280;65471;55.908;37.880;2023-04-06T00:37:41;100532.31;;;3.08;81.92
76590;BME280;65471;55.908;37.880;2023-04-06T00:40:09;100527.31;;;3.05;82.22
76590;BME280;65471;55.908;37.880;2023-04-06T00:42:36;100535.66;;;3.02;82.37
76590;BME280;65471;55.908;37.880;2023-04-06T00:45:03;100530.59;;;2.99;81.66
76590;BME280;65471;55.908;37.880;2023-04-06T00:47:30;100536.28;;;2.96;81.94
76590;BME280;65471;55.908;37.880;2023-04-06T00:49:57;100526.75;;;2.93;82.32
76590;BME280;65471;55.908;37.880;2023-04-06T00:52:24;100536.59;;;2.93;82.38
76590;BME280;65471;55.908;37.880;2023-04-06T00:54:51;100523.25;;;2.93;82.40
76590;BME280;65471;55.908;37.880;2023-04-06T00:57:18;100527.44;;;2.96;82.21
76590;BME280;65471;55.908;37.880;2023-04-06T00:59:45;100528.25;;;2.96;81.92
76590;BME280;65471;55.908;37.880;2023-04-06T01:02:12;100526.75;;;2.93;82.54
76590;BME280;65471;55.908;37.880;2023-04-06T01:04:39;100522.25;;;2.94;82.48
76590;BME280;65471;55.908;37.880;2023-04-06T01:07:06;100522.44;;;2.92;82.20
76590;BME280;65471;55.908;37.880;2023-04-06T01:09:33;100521.75;;;2.90;82.01
76590;BME280;65471;55.908;37.880;2023-04-06T01:12:00;100524.25;;;2.92;82.36
76590;BME280;65471;55.908;37.880;2023-04-06T01:14:27;100525.94;;;2.93;82.62
76590;BME280;65471;55.908;37.880;2023-04-06T01:16:58;100518.91;;;2.92;82.31
76590;BME280;65471;55.908;37.880;2023-04-06T01:19:26;100521.56;;;2.92;83.19
76590;BME280;65471;55.908;37.880;2023-04-06T01:21:53;100523.41;;;2.91;82.64
76590;BME280;65471;55.908;37.880;2023-04-06T01:24:21;100514.59;;;2.91;82.94
76590;BME280;65471;55.908;37.880;2023-04-06T01:26:48;100518.41;;;2.88;82.68
76590;BME280;65471;55.908;37.880;2023-04-06T01:29:15;100517.56;;;2.88;82.65
76590;BME280;65471;55.908;37.880;2023-04-06T01:31:42;100526.41;;;2.88;82.77
76590;BME280;65471;55.908;37.880;2023-04-06T01:34:09;100509.53;;;2.88;82.96
76590;BME280;65471;55.908;37.880;2023-04-06T01:36:36;100519.41;;;2.87;82.71
76590;BME280;65471;55.908;37.880;2023-04-06T01:39:03;100510.56;;;2.87;83.45
76590;BME280;65471;55.908;37.880;2023-04-06T01:41:30;100522.06;;;2.87;82.78
76590;BME280;65471;55.908;37.880;2023-04-06T01:43:57;100517.88;;;2.85;83.40
76590;BME280;65471;55.908;37.880;2023-04-06T01:46:24;100511.06;;;2.82;82.89
76590;BME280;65471;55.908;37.880;2023-04-06T01:48:51;100520.88;;;2.82;83.31
76590;BME280;65471;55.908;37.880;2023-04-06T01:51:18;100521.88;;;2.81;83.20
76590;BME280;65471;55.908;37.880;2023-04-06T01:53:45;100521.22;;;2.79;83.19
76590;BME280;65471;55.908;37.880;2023-04-06T01:56:12;100516.88;;;2.78;83.27
76590;BME280;65471;55.908;37.880;2023-04-06T01:58:39;100518.88;;;2.75;83.58
76590;BME280;65471;55.908;37.880;2023-04-06T02:01:06;100535.06;;;2.74;83.26
76590;BME280;65471;55.908;37.880;2023-04-06T02:03:33;100520.84;;;2.73;82.89
76590;BME280;65471;55.908;37.880;2023-04-06T02:06:00;100519.22;;;2.72;83.59
76590;BME280;65471;55.908;37.880;2023-04-06T02:08:27;100528.19;;;2.71;83.52
76590;BME280;65471;55.908;37.880;2023-04-06T02:10:54;100531.53;;;2.73;83.54
76590;BME280;65471;55.908;37.880;2023-04-06T02:13:21;100529.88;;;2.72;82.82
76590;BME280;65471;55.908;37.880;2023-04-06T02:15:48;100528.88;;;2.73;83.16
76590;BME280;65471;55.908;37.880;2023-04-06T02:18:14;100527.88;;;2.74;83.34
76590;BME280;65471;55.908;37.880;2023-04-06T02:20:44;100537.72;;;2.74;83.37
76590;BME280;65471;55.908;37.880;2023-04-06T02:23:11;100534.19;;;2.73;83.97
76590;BME280;65471;55.908;37.880;2023-04-06T02:25:39;100540.25;;;2.75;83.14
76590;BME280;65471;55.908;37.880;2023-04-06T02:28:07;100544.06;;;2.73;83.41
76590;BME280;65471;55.908;37.880;2023-04-06T02:30:34;100536.22;;;2.71;83.94
76590;BME280;65471;55.908;37.880;2023-04-06T02:33:01;100547.06;;;2.70;83.48
76590;BME280;65471;55.908;37.880;2023-04-06T02:35:30;100546.38;;;2.68;83.47
76590;BME280;65471;55.908;37.880;2023-04-06T02:37:57;100536.72;;;2.67;83.88
76590;BME280;65471;55.908;37.880;2023-04-06T02:40:24;100551.88;;;2.66;82.95
76590;BME280;65471;55.908;37.880;2023-04-06T02:42:51;100552.88;;;2.65;83.55
76590;BME280;65471;55.908;37.880;2023-04-06T02:45:18;100560.38;;;2.62;83.64
76590;BME280;65471;55.908;37.880;2023-04-06T02:47:44;100557.19;;;2.58;83.83
76590;BME280;65471;55.908;37.880;2023-04-06T02:50:11;100564.19;;;2.59;83.31
76590;BME280;65471;55.908;37.880;2023-04-06T02:52:38;100558.03;;;2.58;83.60
76590;BME280;65471;55.908;37.880;2023-04-06T02:55:06;100558.19;;;2.57;83.72
76590;BME280;65471;55.908;37.880;2023-04-06T02:57:34;100559.19;;;2.56;83.37
76590;BME280;65471;55.908;37.880;2023-04-06T03:00:01;100558.34;;;2.55;83.29
76590;BME280;65471;55.908;37.880;2023-04-06T03:02:28;100561.84;;;2.56;83.80
76590;BME280;65471;55.908;37.880;2023-04-06T03:04:56;100565.50;;;2.55;83.73
76590;BME280;65471;55.908;37.880;2023-04-06T03:07:23;100572.53;;;2.56;84.11
76590;BME280;65471;55.908;37.880;2023-04-06T03:09:50;100572.69;;;2.54;84.10
76590;BME280;65471;55.908;37.880;2023-04-06T03:12:17;100567.34;;;2.54;84.24
76590;BME280;65471;55.908;37.880;2023-04-06T03:14:44;100571.53;;;2.57;83.92
76590;BME280;65471;55.908;37.880;2023-04-06T03:17:11;100573.22;;;2.58;83.84
76590;BME280;65471;55.908;37.880;2023-04-06T03:19:38;100567.72;;;2.59;83.58
76590;BME280;65471;55.908;37.880;2023-04-06T03:22:05;100574.88;;;2.59;83.89
76590;BME280;65471;55.908;37.880;2023-04-06T03:24:32;100573.22;;;2.58;84.01
76590;BME280;65471;55.908;37.880;2023-04-06T03:26:59;100567.72;;;2.59;83.79
76590;BME280;65471;55.908;37.880;2023-04-06T03:29:26;100578.41;;;2.59;84.13
76590;BME280;65471;55.908;37.880;2023-04-06T03:31:53;100579.06;;;2.62;83.79
76590;BME280;65471;55.908;37.880;2023-04-06T03:34:20;100580.56;;;2.64;83.89
76590;BME280;65471;55.908;37.880;2023-04-06T03:36:47;100582.94;;;2.67;83.90
76590;BME280;65471;55.908;37.880;2023-04-06T03:39:28;100586.13;;;2.71;84.18
76590;BME280;65471;55.908;37.880;2023-04-06T03:41:55;100582.44;;;2.72;84.06
76590;BME280;65471;55.908;37.880;2023-04-06T03:44:22;100584.78;;;2.75;84.11
76590;BME280;65471;55.908;37.880;2023-04-06T03:46:48;100595.81;;;2.80;83.88
76590;BME280;65471;55.908;37.880;2023-04-06T03:49:15;100588.50;;;2.82;83.34
76590;BME280;65471;55.908;37.880;2023-04-06T03:51:42;100595.34;;;2.85;83.83
76590;BME280;65471;55.908;37.880;2023-04-06T03:54:21;100602.19;;;2.87;83.22
76590;BME280;65471;55.908;37.880;2023-04-06T03:56:48;100596.53;;;2.90;83.38
76590;BME280;65471;55.908;37.880;2023-04-06T03:59:15;100608.56;;;2.94;84.11
76590;BME280;65471;55.908;37.880;2023-04-06T04:01:42;100600.22;;;2.98;83.34
76590;BME280;65471;55.908;37.880;2023-04-06T04:04:10;100604.25;;;3.02;82.96
76590;BME280;65471;55.908;37.880;2023-04-06T04:06:37;100607.44;;;3.05;83.39
76590;BME280;65471;55.908;37.880;2023-04-06T04:09:04;100612.31;;;3.10;83.74
76590;BME280;65471;55.908;37.880;2023-04-06T04:11:31;100607.31;;;3.15;82.82
76590;BME280;65471;55.908;37.880;2023-04-06T04:13:58;100609.50;;;3.20;83.33
76590;BME280;65471;55.908;37.880;2023-04-06T04:16:24;100615.50;;;3.22;82.86
76590;BME280;65471;55.908;37.880;2023-04-06T04:18:51;100619.53;;;3.26;83.04
76590;BME280;65471;55.908;37.880;2023-04-06T04:21:18;100614.53;;;3.31;83.34
76590;BME280;65471;55.908;37.880;2023-04-06T04:23:45;100614.88;;;3.36;83.24
76590;BME280;65471;55.908;37.880;2023-04-06T04:26:12;100619.56;;;3.42;82.50
76590;BME280;65471;55.908;37.880;2023-04-06T04:28:39;100619.72;;;3.49;82.80
76590;BME280;65471;55.908;37.880;2023-04-06T04:31:06;100612.88;;;3.55;82.46
76590;BME280;65471;55.908;37.880;2023-04-06T04:33:32;100617.78;;;3.59;82.60
76590;BME280;65471;55.908;37.880;2023-04-06T04:35:59;100621.63;;;3.65;81.95
76590;BME280;65471;55.908;37.880;2023-04-06T04:38:26;100622.97;;;3.69;82.29
76590;BME280;65471;55.908;37.880;2023-04-06T04:40:53;100623.63;;;3.71;81.61
76590;BME280;65471;55.908;37.880;2023-04-06T04:43:20;100629.31;;;3.76;82.02
76590;BME280;65471;55.908;37.880;2023-04-06T04:45:47;100626.13;;;3.81;81.94
76590;BME280;65471;55.908;37.880;2023-04-06T04:48:14;100622.97;;;3.86;81.85
76590;BME280;65471;55.908;37.880;2023-04-06T04:50:41;100614.41;;;3.90;81.12
76590;BME280;65471;55.908;37.880;2023-04-06T04:53:07;100612.91;;;3.96;81.05
76590;BME280;65471;55.908;37.880;2023-04-06T04:55:34;100616.44;;;4.05;81.06
76590;BME280;65471;55.908;37.880;2023-04-06T04:58:01;100623.63;;;4.12;80.56
76590;BME280;65471;55.908;37.880;2023-04-06T05:00:29;100623.81;;;4.19;80.96
76590;BME280;65471;55.908;37.880;2023-04-06T05:02:56;100629.28;;;4.26;80.45
76590;BME280;65471;55.908;37.880;2023-04-06T05:05:23;100621.59;;;4.31;80.28
76590;BME280;65471;55.908;37.880;2023-04-06T05:07:49;100628.28;;;4.43;79.97
76590;BME280;65471;55.908;37.880;2023-04-06T05:10:17;100634.09;;;4.55;79.95
76590;BME280;65471;55.908;37.880;2023-04-06T05:12:44;100627.72;;;4.64;79.09
76590;BME280;65471;55.908;37.880;2023-04-06T05:15:10;100629.19;;;4.75;78.59
76590;BME280;65471;55.908;37.880;2023-04-06T05:17:37;100634.53;;;4.83;78.87
76590;BME280;65471;55.908;37.880;2023-04-06T05:20:06;100628.13;;;4.93;78.35
76590;BME280;65471;55.908;37.880;2023-04-06T05:22:33;100628.91;;;5.01;78.06
76590;BME280;65471;55.908;37.880;2023-04-06T05:25:01;100629.88;;;5.09;78.20
76590;BME280;65471;55.908;37.880;2023-04-06T05:27:29;100632.53;;;5.17;77.98
76590;BME280;65471;55.908;37.880;2023-04-06T05:29:56;100629.81;;;5.25;77.97
76590;BME280;65471;55.908;37.880;2023-04-06T05:32:24;100622.75;;;5.32;77.24
76590;BME280;65471;55.908;37.880;2023-04-06T05:34:52;100624.56;;;5.40;76.73
76590;BME280;65471;55.908;37.880;2023-04-06T05:37:19;100626.53;;;5.46;76.55
76590;BME280;65471;55.908;37.880;2023-04-06T05:39:46;100633.84;;;5.52;76.21
76590;BME280;65471;55.908;37.880;2023-04-06T05:42:12;100625.25;;;5.57;75.67
76590;BME280;65471;55.908;37.880;2023-04-06T05:44:39;100623.06;;;5.61;75.21
76590;BME280;65471;55.908;37.880;2023-04-06T05:47:06;100626.25;;;5.64;75.28
76590;BME280;65471;55.908;37.880;2023-04-06T05:49:33;100635.41;;;5.70;75.22
76590;BME280;65471;55.908;37.880;2023-04-06T05:52:01;100625.81;;;5.76;75.29
76590;BME280;65471;55.908;37.880;2023-04-06T05:54:28;100630.47;;;5.82;75.25
76590;BME280;65471;55.908;37.880;2023-04-06T05:56:55;100630.56;;;5.88;74.95
76590;BME280;65471;55.908;37.880;2023-04-06T05:59:22;100634.56;;;5.93;74.57
76590;BME280;65471;55.908;37.880;2023-04-06T06:01:50;100635.25;;;5.95;74.44
76590;BME280;65471;55.908;37.880;2023-04-06T06:04:17;100633.72;;;6.00;74.20
76590;BME280;65471;55.908;37.880;2023-04-06T06:06:44;100634.19;;;6.04;73.77
76590;BME280;65471;55.908;37.880;2023-04-06T06:09:11;100631.59;;;6.11;73.45
76590;BME280;65471;55.908;37.880;2023-04-06T06:11:38;100635.25;;;6.18;73.39
76590;BME280;65471;55.908;37.880;2023-04-06T06:14:05;100625.44;;;6.25;73.27
76590;BME280;65471;55.908;37.880;2023-04-06T06:16:32;100627.22;;;6.33;72.74
76590;BME280;65471;55.908;37.880;2023-04-06T06:18:59;100631.84;;;6.39;72.38
76590;BME280;65471;55.908;37.880;2023-04-06T06:21:26;100629.81;;;6.41;72.11
76590;BME280;65471;55.908;37.880;2023-04-06T06:23:53;100632.59;;;6.48;72.35
76590;BME280;65471;55.908;37.880;2023-04-06T06:26:21;100638.09;;;6.54;72.07
76590;BME280;65471;55.908;37.880;2023-04-06T06:28:48;100629.94;;;6.63;71.59
76590;BME280;65471;55.908;37.880;2023-04-06T06:31:15;100633.19;;;6.73;71.47
76590;BME280;65471;55.908;37.880;2023-04-06T06:33:43;100622.16;;;6.83;70.98
76590;BME280;65471;55.908;37.880;2023-04-06T06:36:09;100632.59;;;6.93;70.32
76590;BME280;65471;55.908;37.880;2023-04-06T06:38:36;100633.19;;;7.03;70.02
76590;BME280;65471;55.908;37.880;2023-04-06T06:41:04;100632.22;;;7.11;69.94
76590;BME280;65471;55.908;37.880;2023-04-06T06:43:31;100622.19;;;7.19;69.76
76590;BME280;65471;55.908;37.880;2023-04-06T06:45:58;100632.84;;;7.28;69.65
76590;BME280;65471;55.908;37.880;2023-04-06T06:48:25;100635.44;;;7.36;69.22
76590;BME280;65471;55.908;37.880;2023-04-06T06:50:52;100622.06;;;7.42;69.06
76590;BME280;65471;55.908;37.880;2023-04-06T06:53:19;100625.84;;;7.48;68.83
76590;BME280;65471;55.908;37.880;2023-04-06T06:55:47;100629.59;;;7.54;68.29
76590;BME280;65471;55.908;37.880;2023-04-06T06:58:17;100635.06;;;7.60;67.82
76590;BME280;65471;55.908;37.880;2023-04-06T07:00:44;100627.69;;;7.69;67.60
76590;BME280;65471;55.908;37.880;2023-04-06T07:03:12;100625.72;;;7.78;67.46
76590;BME280;65471;55.908;37.880;2023-04-06T07:05:39;100623.75;;;7.87;66.89
76590;BME280;65471;55.908;37.880;2023-04-06T07:08:07;100620.28;;;7.93;66.86
76590;BME280;65471;55.908;37.880;2023-04-06T07:10:33;100627.19;;;8.02;67.14
76590;BME280;65471;55.908;37.880;2023-04-06T07:13:01;100622.72;;;8.09;66.71
76590;BME280;65471;55.908;37.880;2023-04-06T07:15:28;100620.72;;;8.18;66.05
76590;BME280;65471;55.908;37.880;2023-04-06T07:17:55;100611.22;;;8.22;65.23
76590;BME280;65471;55.908;37.880;2023-04-06T07:20:22;100617.41;;;8.23;64.93
76590;BME280;65471;55.908;37.880;2023-04-06T07:22:49;100616.81;;;8.27;64.64
76590;BME280;65471;55.908;37.880;2023-04-06T07:25:16;100618.78;;;8.40;64.79
76590;BME280;65471;55.908;37.880;2023-04-06T07:27:42;100620.53;;;8.48;64.13
76590;BME280;65471;55.908;37.880;2023-04-06T07:30:10;100623.47;;;8.53;64.03
76590;BME280;65471;55.908;37.880;2023-04-06T07:32:37;100611.50;;;8.62;64.17
76590;BME280;65471;55.908;37.880;2023-04-06T07:35:04;100614.66;;;8.73;64.35
76590;BME280;65471;55.908;37.880;2023-04-06T07:37:31;100612.03;;;8.79;63.48
76590;BME280;65471;55.908;37.880;2023-04-06T07:39:58;100621.59;;;8.89;63.60
76590;BME280;65471;55.908;37.880;2023-04-06T07:42:25;100599.66;;;8.98;63.46
76590;BME280;65471;55.908;37.880;2023-04-06T07:44:52;100608.59;;;9.06;62.76
76590;BME280;65471;55.908;37.880;2023-04-06T07:47:18;100611.13;;;9.14;62.88
76590;BME280;65471;55.908;37.880;2023-04-06T07:49:45;100605.16;;;9.25;62.63
76590;BME280;65471;55.908;37.880;2023-04-06T07:52:12;100608.31;;;9.36;62.70
76590;BME280;65471;55.908;37.880;2023-04-06T07:54:40;100604.56;;;9.43;62.39
76590;BME280;65471;55.908;37.880;2023-04-06T07:57:07;100612.28;;;9.53;61.75
76590;BME280;65471;55.908;37.880;2023-04-06T07:59:34;100597.78;;;9.61;60.96
76590;BME280;65471;55.908;37.880;2023-04-06T08:02:01;100600.09;;;9.71;60.40
76590;BME280;65471;55.908;37.880;2023-04-06T08:04:28;100604.03;;;9.81;60.08
76590;BME280;65471;55.908;37.880;2023-04-06T08:06:55;100599.47;;;9.89;59.71
76590;BME280;65471;55.908;37.880;2023-04-06T08:09:22;100600.28;;;9.96;59.11
76590;BME280;65471;55.908;37.880;2023-04-06T08:11:49;100606.31;;;10.05;58.79
76590;BME280;65471;55.908;37.880;2023-04-06T08:14:16;100595.31;;;10.13;58.50
76590;BME280;65471;55.908;37.880;2023-04-06T08:16:43;100602.38;;;10.21;58.12
76590;BME280;65471;55.908;37.880;2023-04-06T08:19:10;100592.19;;;10.29;57.98
76590;BME280;65471;55.908;37.880;2023-04-06T08:21:37;100599.06;;;10.39;57.77
76590;BME280;65471;55.908;37.880;2023-04-06T08:24:05;100597.38;;;10.51;57.46
76590;BME280;65471;55.908;37.880;2023-04-06T08:26:33;100590.09;;;10.58;57.71
76590;BME280;65471;55.908;37.880;2023-04-06T08:28:59;100598.38;;;10.70;57.17
76590;BME280;65471;55.908;37.880;2023-04-06T08:31:26;100587.97;;;10.80;56.54
76590;BME280;65471;55.908;37.880;2023-04-06T08:33:53;100597.06;;;10.93;55.79
76590;BME280;65471;55.908;37.880;2023-04-06T08:36:20;100599.75;;;10.99;55.27
76590;BME280;65471;55.908;37.880;2023-04-06T08:38:49;100594.94;;;11.01;54.92
76590;BME280;65471;55.908;37.880;2023-04-06T08:41:17;100586.78;;;11.08;54.55
76590;BME280;65471;55.908;37.880;2023-04-06T08:46:11;100598.16;;;11.30;53.81
76590;BME280;65471;55.908;37.880;2023-04-06T08:48:39;100596.84;;;11.39;53.11
76590;BME280;65471;55.908;37.880;2023-04-06T08:51:07;100593.69;;;11.43;52.38
76590;BME280;65471;55.908;37.880;2023-04-06T08:53:35;100587.00;;;11.52;52.37
76590;BME280;65471;55.908;37.880;2023-04-06T08:56:02;100589.44;;;11.60;52.28
76590;BME280;65471;55.908;37.880;2023-04-06T08:58:35;100583.59;;;11.63;51.30
76590;BME280;65471;55.908;37.880;2023-04-06T09:01:10;100588.38;;;11.61;51.18
76590;BME280;65471;55.908;37.880;2023-04-06T09:03:39;100576.50;;;11.62;51.33
76590;BME280;65471;55.908;37.880;2023-04-06T09:06:08;100589.59;;;11.65;51.30
76590;BME280;65471;55.908;37.880;2023-04-06T09:08:38;100587.22;;;11.75;51.67
76590;BME280;65471;55.908;37.880;2023-04-06T09:11:05;100578.63;;;11.85;51.17
76590;BME280;65471;55.908;37.880;2023-04-06T09:13:44;100585.66;;;11.93;50.36
76590;BME280;65471;55.908;37.880;2023-04-06T09:16:11;100584.56;;;12.01;49.37
76590;BME280;65471;55.908;37.880;2023-04-06T09:18:38;100571.44;;;12.04;49.23
76590;BME280;65471;55.908;37.880;2023-04-06T09:21:06;100569.63;;;12.17;49.74
76590;BME280;65471;55.908;37.880;2023-04-06T09:23:34;100577.91;;;12.47;49.80
76590;BME280;65471;55.908;37.880;2023-04-06T09:26:08;100581.16;;;12.93;49.29
76590;BME280;65471;55.908;37.880;2023-04-06T09:28:54;100567.97;;;13.45;47.84
76590;BME280;65471;55.908;37.880;2023-04-06T09:31:26;100569.72;;;13.94;47.33
76590;BME280;65471;55.908;37.880;2023-04-06T09:33:53;100566.16;;;14.41;46.10
76590;BME280;65471;55.908;37.880;2023-04-06T09:36:33;100577.97;;;14.82;45.12
76590;BME280;65471;55.908;37.880;2023-04-06T09:39:03;100572.25;;;15.07;44.45
76590;BME280;65471;55.908;37.880;2023-04-06T09:41:32;100572.41;;;15.29;44.21
76590;BME280;65471;55.908;37.880;2023-04-06T09:44:10;100563.06;;;15.71;43.22
76590;BME280;65471;55.908;37.880;2023-04-06T09:46:42;100563.34;;;16.20;42.13
76590;BME280;65471;55.908;37.880;2023-04-06T09:49:30;100555.31;;;16.53;41.52
76590;BME280;65471;55.908;37.880;2023-04-06T09:52:06;100563.25;;;16.54;41.42
76590;BME280;65471;55.908;37.880;2023-04-06T09:54:34;100571.53;;;16.20;41.92
76590;BME280;65471;55.908;37.880;2023-04-06T09:57:25;100557.09;;;15.74;41.79
76590;BME280;65471;55.908;37.880;2023-04-06T10:00:08;100561.91;;;15.67;42.40
76590;BME280;65471;55.908;37.880;2023-04-06T10:02:45;100568.09;;;15.62;41.96
76590;BME280;65471;55.908;37.880;2023-04-06T10:05:35;100564.34;;;15.51;41.82
76590;BME280;65471;55.908;37.880;2023-04-06T10:08:06;100570.78;;;15.16;42.03
76590;BME280;65471;55.908;37.880;2023-04-06T10:10:34;100571.97;;;14.80;42.27
76590;BME280;65471;55.908;37.880;2023-04-06T10:13:01;100569.47;;;14.55;43.21
76590;BME280;65471;55.908;37.880;2023-04-06T10:15:29;100563.69;;;14.27;43.41
76590;BME280;65471;55.908;37.880;2023-04-06T10:18:00;100571.50;;;14.12;44.13
76590;BME280;65471;55.908;37.880;2023-04-06T10:21:17;100555.53;;;13.92;44.20
76590;BME280;65471;55.908;37.880;2023-04-06T10:23:32;100562.25;;;13.77;44.89
76590;BME280;65471;55.908;37.880;2023-04-06T10:26:02;100567.53;;;13.72;44.87
76590;BME280;65471;55.908;37.880;2023-04-06T10:28:33;100563.69;;;14.04;44.57
76590;BME280;65471;55.908;37.880;2023-04-06T10:31:05;100565.94;;;14.30;43.90
76590;BME280;65471;55.908;37.880;2023-04-06T10:33:33;100575.78;;;14.20;44.08
76590;BME280;65471;55.908;37.880;2023-04-06T10:36:14;100571.38;;;13.95;44.61
76590;BME280;65471;55.908;37.880;2023-04-06T10:38:42;100573.25;;;13.94;44.88
76590;BME280;65471;55.908;37.880;2023-04-06T10:41:11;100561.56;;;13.94;45.28
76590;BME280;65471;55.908;37.880;2023-04-06T10:43:40;100563.09;;;14.02;44.75
76590;BME280;65471;55.908;37.880;2023-04-06T10:46:09;100559.56;;;14.01;45.06
76590;BME280;65471;55.908;37.880;2023-04-06T10:51:15;100554.66;;;13.79;45.17
76590;BME280;65471;55.908;37.880;2023-04-06T10:53:44;100560.56;;;13.76;45.24
76590;BME280;65471;55.908;37.880;2023-04-06T10:56:13;100565.91;;;13.71;45.72
76590;BME280;65471;55.908;37.880;2023-04-06T10:58:47;100565.63;;;13.61;45.36
76590;BME280;65471;55.908;37.880;2023-04-06T11:01:16;100555.94;;;13.53;45.41
76590;BME280;65471;55.908;37.880;2023-04-06T11:03:48;100557.69;;;13.48;45.88
76590;BME280;65471;55.908;37.880;2023-04-06T11:06:23;100547.97;;;13.40;45.97
76590;BME280;65471;55.908;37.880;2023-04-06T11:08:51;100548.34;;;13.43;46.06
76590;BME280;65471;55.908;37.880;2023-04-06T11:11:19;100554.91;;;13.66;45.32
76590;BME280;65471;55.908;37.880;2023-04-06T11:16:25;100551.22;;;13.60;45.95
76590;BME280;65471;55.908;37.880;2023-04-06T11:18:57;100550.97;;;13.62;45.48
76590;BME280;65471;55.908;37.880;2023-04-06T11:21:44;100561.75;;;13.69;45.44
76590;BME280;65471;55.908;37.880;2023-04-06T11:24:22;100546.00;;;13.59;45.36
76590;BME280;65471;55.908;37.880;2023-04-06T11:26:53;100557.47;;;13.61;45.40
76590;BME280;65471;55.908;37.880;2023-04-06T11:29:24;100551.84;;;13.74;45.14
76590;BME280;65471;55.908;37.880;2023-04-06T11:31:54;100554.78;;;13.73;44.85
76590;BME280;65471;55.908;37.880;2023-04-06T11:34:25;100554.81;;;13.85;44.78
76590;BME280;65471;55.908;37.880;2023-04-06T11:37:00;100552.56;;;13.93;44.78
76590;BME280;65471;55.908;37.880;2023-04-06T11:39:29;100566.25;;;13.75;45.50
76590;BME280;65471;55.908;37.880;2023-04-06T11:42:00;100549.19;;;13.56;45.40
76590;BME280;65471;55.908;37.880;2023-04-06T11:44:39;100550.69;;;13.40;45.97
76590;BME280;65471;55.908;37.880;2023-04-06T11:47:09;100551.44;;;13.28;46.53
76590;BME280;65471;55.908;37.880;2023-04-06T11:49:37;100552.47;;;13.16;46.46
76590;BME280;65471;55.908;37.880;2023-04-06T11:54:45;100538.81;;;13.04;46.43
76590;BME280;65471;55.908;37.880;2023-04-06T11:57:12;100546.38;;;13.02;46.29
76590;BME280;65471;55.908;37.880;2023-04-06T11:59:39;100548.03;;;13.03;46.06
76590;BME280;65471;55.908;37.880;2023-04-06T12:02:06;100544.13;;;12.99;46.63
76590;BME280;65471;55.908;37.880;2023-04-06T12:04:33;100533.97;;;12.94;47.18
76590;BME280;65471;55.908;37.880;2023-04-06T12:07:01;100536.06;;;12.92;47.27
76590;BME280;65471;55.908;37.880;2023-04-06T12:09:29;100538.94;;;12.97;46.30
76590;BME280;65471;55.908;37.880;2023-04-06T12:11:56;100540.13;;;13.01;45.78
76590;BME280;65471;55.908;37.880;2023-04-06T12:14:23;100541.50;;;13.22;45.33
76590;BME280;65471;55.908;37.880;2023-04-06T12:16:50;100533.50;;;13.27;45.89
76590;BME280;65471;55.908;37.880;2023-04-06T12:19:38;100526.63;;;13.25;45.63
76590;BME280;65471;55.908;37.880;2023-04-06T12:22:04;100527.41;;;13.13;45.15
76590;BME280;65471;55.908;37.880;2023-04-06T12:24:31;100529.53;;;13.11;44.94
76590;BME280;65471;55.908;37.880;2023-04-06T12:26:58;100523.38;;;13.04;45.59
76590;BME280;65471;55.908;37.880;2023-04-06T12:29:35;100523.84;;;13.01;45.65
76590;BME280;65471;55.908;37.880;2023-04-06T12:32:02;100524.88;;;13.00;45.32
76590;BME280;65471;55.908;37.880;2023-04-06T12:34:29;100524.56;;;13.08;45.03
76590;BME280;65471;55.908;37.880;2023-04-06T12:36:57;100525.53;;;13.14;44.80
76590;BME280;65471;55.908;37.880;2023-04-06T12:39:24;100524.06;;;13.72;44.15
76590;BME280;65471;55.908;37.880;2023-04-06T12:41:52;100524.53;;;15.33;41.57
76590;BME280;65471;55.908;37.880;2023-04-06T12:44:19;100529.41;;;15.48;40.51
76590;BME280;65471;55.908;37.880;2023-04-06T12:46:46;100517.50;;;14.80;41.37
76590;BME280;65471;55.908;37.880;2023-04-06T12:49:13;100528.47;;;14.32;41.90
76590;BME280;65471;55.908;37.880;2023-04-06T12:51:40;100533.31;;;13.95;42.12
76590;BME280;65471;55.908;37.880;2023-04-06T12:54:06;100520.03;;;13.63;42.30
76590;BME280;65471;55.908;37.880;2023-04-06T12:56:33;100519.75;;;13.41;42.42
76590;BME280;65471;55.908;37.880;2023-04-06T12:59:00;100528.53;;;13.24;43.32
76590;BME280;65471;55.908;37.880;2023-04-06T13:01:27;100532.19;;;13.18;42.96